Salta, Argentina

5:23 PM ART on July 29, 2014 (GMT -0300)
Salta (SASA) Elev 4088 ft | 24.86 °S, 65.49 °W | Change Station

Current weather conditions updated 23 minutes ago

Clear
Clear
73 °F
Feels Like 73 °F
N
10
Wind Variable Wind from ENE

Tomorrow is forecast to be Cooler than today.

Today
High -- | Low -- °F
--% Chance of Precip.
Yesterday
High -- | Low -- °F
Precip. -- in
8:00 AM 6:56 PM
Waxing Crescent, 7% visible
Pressure 30.01 in
Visibility -9999.0 miles
Clouds
Dew Point 41 °F
Humidity 31%
Rainfall 0.00 in
Snow Depth Not available.
UV Not available.
Pollen Not available.
Air Quality Not available.
Flu Activity Not available.
METAR SASA 292000Z 07009KT CAVOK 23/05 Q1016

More Conditions Fewer Conditions

Pressure 30.01 in
Visibility -9999.0 miles
Clouds
Dew Point 41 °F
Humidity 31%
Rainfall 0.00 in
Snow Depth Not available.
UV Not available.
Pollen Not available.
Air Quality Not available.
Flu Activity Not available.
METAR SASA 292000Z 07009KT CAVOK 23/05 Q1016

More Conditions Fewer Conditions

10-Day Weather Forecast

Almanac

Astronomy

Jul. 29, 2014 Rise Set
Actual Time 8:00 AM ART 6:56 PM ART
Civil Twilight 7:36 AM ART 7:20 PM ART
Nautical Twilight 7:08 AM ART 7:48 PM ART
Astronomical Twilight 6:41 AM ART 8:15 PM ART
Moon 9:25 AM ART 9:24 PM ART
Length of Visible Light 11h 44m
Length of Day
10h 55m
Tomorrow will be 0m 58s longer.
Waxing Crescent, 7% of the Moon is Illuminated
Today
Waxing Crescent
Aug 3
First Quarter
Aug 10
Full
Aug 17
Last Quarter
Aug 25
New

Today's Extremes

Country Highs Country Lows

Community

WunderPhotos

Upload Photos

1,738,858 photos uploaded!

Nearby

Snow Depth

Not available.

Earthquake Activity

City Distance Mag. Time & Date
No recent earthquake activity has been reported nearby.
Minimum magnitude displayed is 2.5.

Coastal Water Temperatures

Place Temperature
No Stations Reporting

Nearby Weather Stations

Station Location Temp. Heat Index Dew Point Humidity Wind Precip. Elev Updated Type
La Isla, Cerrillos 76.1 °F 78 °F 48 °F 39% NE  at  6.9 mph 0.00 in / hr 3832 ft 5:14 PM ART Normal

Show More Stations Show Fewer Stations